sensor_id;sensor_type;location;lat;lon;timestamp;P1;durP1;ratioP1;P2;durP2;ratioP2
62338;SDS011;48368;53.406;6.214;2023-05-20T00:00:34;18.17;;;5.65;;
62338;SDS011;48368;53.406;6.214;2023-05-20T00:03:03;16.02;;;5.00;;
62338;SDS011;48368;53.406;6.214;2023-05-20T00:05:29;12.77;;;5.35;;
62338;SDS011;48368;53.406;6.214;2023-05-20T00:07:58;14.80;;;5.88;;
62338;SDS011;48368;53.406;6.214;2023-05-20T00:10:24;16.13;;;5.18;;
62338;SDS011;48368;53.406;6.214;2023-05-20T00:12:50;15.73;;;5.53;;
62338;SDS011;48368;53.406;6.214;2023-05-20T00:15:15;15.43;;;5.63;;
62338;SDS011;48368;53.406;6.214;2023-05-20T00:17:41;13.93;;;6.20;;
62338;SDS011;48368;53.406;6.214;2023-05-20T00:20:07;16.48;;;6.20;;
62338;SDS011;48368;53.406;6.214;2023-05-20T00:22:33;15.20;;;5.10;;
62338;SDS011;48368;53.406;6.214;2023-05-20T00:24:58;16.58;;;5.18;;
62338;SDS011;48368;53.406;6.214;2023-05-20T00:27:24;18.10;;;6.15;;
62338;SDS011;48368;53.406;6.214;2023-05-20T00:29:49;17.30;;;5.95;;
62338;SDS011;48368;53.406;6.214;2023-05-20T00:32:15;13.70;;;5.18;;
62338;SDS011;48368;53.406;6.214;2023-05-20T00:34:41;14.95;;;5.80;;
62338;SDS011;48368;53.406;6.214;2023-05-20T00:37:07;13.20;;;5.15;;
62338;SDS011;48368;53.406;6.214;2023-05-20T00:39:33;15.43;;;5.57;;
62338;SDS011;48368;53.406;6.214;2023-05-20T00:41:58;13.57;;;5.68;;
62338;SDS011;48368;53.406;6.214;2023-05-20T00:44:26;11.90;;;5.63;;
62338;SDS011;48368;53.406;6.214;2023-05-20T00:46:52;15.30;;;5.65;;
62338;SDS011;48368;53.406;6.214;2023-05-20T00:49:19;14.30;;;5.43;;
62338;SDS011;48368;53.406;6.214;2023-05-20T00:51:46;20.10;;;6.20;;
62338;SDS011;48368;53.406;6.214;2023-05-20T00:54:18;14.73;;;5.25;;
62338;SDS011;48368;53.406;6.214;2023-05-20T00:56:44;15.43;;;5.72;;
62338;SDS011;48368;53.406;6.214;2023-05-20T00:59:09;19.27;;;5.45;;
62338;SDS011;48368;53.406;6.214;2023-05-20T01:01:36;14.57;;;6.70;;
62338;SDS011;48368;53.406;6.214;2023-05-20T01:04:02;20.10;;;6.10;;
62338;SDS011;48368;53.406;6.214;2023-05-20T01:06:28;13.30;;;5.93;;
62338;SDS011;48368;53.406;6.214;2023-05-20T01:08:54;15.73;;;5.82;;
62338;SDS011;48368;53.406;6.214;2023-05-20T01:13:59;14.52;;;6.15;;
62338;SDS011;48368;53.406;6.214;2023-05-20T01:16:30;17.35;;;6.40;;
62338;SDS011;48368;53.406;6.214;2023-05-20T01:18:58;17.08;;;6.60;;
62338;SDS011;48368;53.406;6.214;2023-05-20T01:21:26;15.38;;;6.25;;
62338;SDS011;48368;53.406;6.214;2023-05-20T01:23:55;16.90;;;6.93;;
62338;SDS011;48368;53.406;6.214;2023-05-20T01:26:20;14.98;;;6.93;;
62338;SDS011;48368;53.406;6.214;2023-05-20T01:28:50;16.88;;;6.90;;
62338;SDS011;48368;53.406;6.214;2023-05-20T01:31:17;14.55;;;5.82;;
62338;SDS011;48368;53.406;6.214;2023-05-20T01:33:54;15.73;;;6.32;;
62338;SDS011;48368;53.406;6.214;2023-05-20T01:36:22;14.85;;;6.57;;
62338;SDS011;48368;53.406;6.214;2023-05-20T01:38:48;11.18;;;5.65;;
62338;SDS011;48368;53.406;6.214;2023-05-20T01:41:16;15.45;;;6.22;;
62338;SDS011;48368;53.406;6.214;2023-05-20T01:43:42;14.02;;;5.68;;
62338;SDS011;48368;53.406;6.214;2023-05-20T01:46:08;8.60;;;5.38;;
62338;SDS011;48368;53.406;6.214;2023-05-20T01:48:34;9.02;;;5.32;;
62338;SDS011;48368;53.406;6.214;2023-05-20T01:51:00;16.85;;;6.15;;
62338;SDS011;48368;53.406;6.214;2023-05-20T01:53:25;16.60;;;6.90;;
62338;SDS011;48368;53.406;6.214;2023-05-20T01:55:51;13.13;;;6.38;;
62338;SDS011;48368;53.406;6.214;2023-05-20T01:58:17;17.50;;;6.43;;
62338;SDS011;48368;53.406;6.214;2023-05-20T02:00:42;14.15;;;6.03;;
62338;SDS011;48368;53.406;6.214;2023-05-20T02:03:08;13.88;;;7.43;;
62338;SDS011;48368;53.406;6.214;2023-05-20T02:05:34;17.75;;;6.10;;
62338;SDS011;48368;53.406;6.214;2023-05-20T02:07:59;12.38;;;6.45;;
62338;SDS011;48368;53.406;6.214;2023-05-20T02:10:25;13.38;;;5.80;;
62338;SDS011;48368;53.406;6.214;2023-05-20T02:12:51;17.17;;;5.90;;
62338;SDS011;48368;53.406;6.214;2023-05-20T02:15:16;14.25;;;6.65;;
62338;SDS011;48368;53.406;6.214;2023-05-20T02:17:42;12.05;;;5.45;;
62338;SDS011;48368;53.406;6.214;2023-05-20T02:20:17;14.98;;;5.57;;
62338;SDS011;48368;53.406;6.214;2023-05-20T02:22:43;14.63;;;6.28;;
62338;SDS011;48368;53.406;6.214;2023-05-20T02:25:08;13.15;;;5.07;;
62338;SDS011;48368;53.406;6.214;2023-05-20T02:27:34;13.00;;;5.13;;
62338;SDS011;48368;53.406;6.214;2023-05-20T02:30:00;13.00;;;5.50;;
62338;SDS011;48368;53.406;6.214;2023-05-20T02:32:26;15.00;;;5.30;;
62338;SDS011;48368;53.406;6.214;2023-05-20T02:34:55;12.00;;;4.82;;
62338;SDS011;48368;53.406;6.214;2023-05-20T02:37:21;14.05;;;5.20;;
62338;SDS011;48368;53.406;6.214;2023-05-20T02:39:46;11.70;;;4.90;;
62338;SDS011;48368;53.406;6.214;2023-05-20T02:42:12;13.13;;;5.22;;
62338;SDS011;48368;53.406;6.214;2023-05-20T02:44:38;10.60;;;4.80;;
62338;SDS011;48368;53.406;6.214;2023-05-20T02:47:03;12.93;;;5.00;;
62338;SDS011;48368;53.406;6.214;2023-05-20T02:49:29;10.80;;;4.53;;
62338;SDS011;48368;53.406;6.214;2023-05-20T02:51:55;12.40;;;4.32;;
62338;SDS011;48368;53.406;6.214;2023-05-20T02:54:21;12.85;;;5.13;;
62338;SDS011;48368;53.406;6.214;2023-05-20T02:56:46;14.02;;;5.57;;
62338;SDS011;48368;53.406;6.214;2023-05-20T02:59:12;10.55;;;5.10;;
62338;SDS011;48368;53.406;6.214;2023-05-20T03:01:38;11.30;;;5.07;;
62338;SDS011;48368;53.406;6.214;2023-05-20T03:04:16;11.43;;;4.13;;
62338;SDS011;48368;53.406;6.214;2023-05-20T03:06:43;11.85;;;4.97;;
62338;SDS011;48368;53.406;6.214;2023-05-20T03:09:10;10.90;;;4.30;;
62338;SDS011;48368;53.406;6.214;2023-05-20T03:11:36;9.55;;;4.20;;
62338;SDS011;48368;53.406;6.214;2023-05-20T03:14:01;12.15;;;4.65;;
62338;SDS011;48368;53.406;6.214;2023-05-20T03:16:27;9.65;;;4.10;;
62338;SDS011;48368;53.406;6.214;2023-05-20T03:18:52;9.13;;;4.03;;
62338;SDS011;48368;53.406;6.214;2023-05-20T03:21:18;10.73;;;4.22;;
62338;SDS011;48368;53.406;6.214;2023-05-20T03:23:47;9.75;;;3.67;;
62338;SDS011;48368;53.406;6.214;2023-05-20T03:26:13;12.05;;;4.00;;
62338;SDS011;48368;53.406;6.214;2023-05-20T03:28:39;12.45;;;4.47;;
62338;SDS011;48368;53.406;6.214;2023-05-20T03:31:04;8.63;;;3.88;;
62338;SDS011;48368;53.406;6.214;2023-05-20T03:33:32;11.20;;;4.45;;
62338;SDS011;48368;53.406;6.214;2023-05-20T03:35:58;10.13;;;3.80;;
62338;SDS011;48368;53.406;6.214;2023-05-20T03:38:24;10.88;;;3.55;;
62338;SDS011;48368;53.406;6.214;2023-05-20T03:40:53;10.15;;;4.10;;
62338;SDS011;48368;53.406;6.214;2023-05-20T03:43:19;7.38;;;3.90;;
62338;SDS011;48368;53.406;6.214;2023-05-20T03:45:44;11.20;;;3.95;;
62338;SDS011;48368;53.406;6.214;2023-05-20T03:48:10;7.75;;;3.78;;
62338;SDS011;48368;53.406;6.214;2023-05-20T03:50:36;8.20;;;3.15;;
62338;SDS011;48368;53.406;6.214;2023-05-20T03:53:01;8.88;;;3.83;;
62338;SDS011;48368;53.406;6.214;2023-05-20T03:55:27;10.40;;;3.75;;
62338;SDS011;48368;53.406;6.214;2023-05-20T03:57:53;9.73;;;3.00;;
62338;SDS011;48368;53.406;6.214;2023-05-20T04:00:19;8.35;;;3.03;;
62338;SDS011;48368;53.406;6.214;2023-05-20T04:02:47;11.27;;;3.47;;
62338;SDS011;48368;53.406;6.214;2023-05-20T04:05:13;9.20;;;3.15;;
62338;SDS011;48368;53.406;6.214;2023-05-20T04:07:39;8.80;;;3.70;;
62338;SDS011;48368;53.406;6.214;2023-05-20T04:10:05;7.28;;;3.35;;
62338;SDS011;48368;53.406;6.214;2023-05-20T04:12:31;10.25;;;3.90;;
62338;SDS011;48368;53.406;6.214;2023-05-20T04:14:57;9.15;;;2.97;;
62338;SDS011;48368;53.406;6.214;2023-05-20T04:17:28;7.22;;;2.58;;
62338;SDS011;48368;53.406;6.214;2023-05-20T04:19:55;5.53;;;2.50;;
62338;SDS011;48368;53.406;6.214;2023-05-20T04:22:22;6.43;;;2.55;;
62338;SDS011;48368;53.406;6.214;2023-05-20T04:24:50;7.85;;;2.33;;
62338;SDS011;48368;53.406;6.214;2023-05-20T04:27:16;6.53;;;2.20;;
62338;SDS011;48368;53.406;6.214;2023-05-20T04:29:42;6.00;;;1.95;;
62338;SDS011;48368;53.406;6.214;2023-05-20T04:32:16;7.10;;;2.17;;
62338;SDS011;48368;53.406;6.214;2023-05-20T04:34:42;4.32;;;1.80;;
62338;SDS011;48368;53.406;6.214;2023-05-20T04:37:09;3.83;;;1.98;;
62338;SDS011;48368;53.406;6.214;2023-05-20T04:39:35;6.15;;;2.00;;
62338;SDS011;48368;53.406;6.214;2023-05-20T04:42:01;5.60;;;1.70;;
62338;SDS011;48368;53.406;6.214;2023-05-20T04:44:27;9.07;;;2.00;;
62338;SDS011;48368;53.406;6.214;2023-05-20T04:46:54;6.10;;;1.65;;
62338;SDS011;48368;53.406;6.214;2023-05-20T04:49:21;7.75;;;1.92;;
62338;SDS011;48368;53.406;6.214;2023-05-20T04:51:50;4.25;;;1.80;;
62338;SDS011;48368;53.406;6.214;2023-05-20T04:54:19;6.78;;;2.03;;
62338;SDS011;48368;53.406;6.214;2023-05-20T04:56:45;6.07;;;2.00;;
62338;SDS011;48368;53.406;6.214;2023-05-20T04:59:11;6.20;;;1.65;;
62338;SDS011;48368;53.406;6.214;2023-05-20T05:01:37;6.80;;;1.65;;
62338;SDS011;48368;53.406;6.214;2023-05-20T05:04:07;6.90;;;1.75;;
62338;SDS011;48368;53.406;6.214;2023-05-20T05:06:33;4.80;;;1.55;;
62338;SDS011;48368;53.406;6.214;2023-05-20T05:08:58;5.25;;;2.00;;
62338;SDS011;48368;53.406;6.214;2023-05-20T05:11:24;8.32;;;1.80;;
62338;SDS011;48368;53.406;6.214;2023-05-20T05:13:50;4.38;;;1.98;;
62338;SDS011;48368;53.406;6.214;2023-05-20T05:16:16;3.92;;;1.90;;
62338;SDS011;48368;53.406;6.214;2023-05-20T05:18:42;6.93;;;1.80;;
62338;SDS011;48368;53.406;6.214;2023-05-20T05:21:07;7.20;;;1.90;;
62338;SDS011;48368;53.406;6.214;2023-05-20T05:23:33;5.32;;;2.08;;
62338;SDS011;48368;53.406;6.214;2023-05-20T05:25:58;9.05;;;2.00;;
62338;SDS011;48368;53.406;6.214;2023-05-20T05:28:25;4.47;;;1.67;;
62338;SDS011;48368;53.406;6.214;2023-05-20T05:30:52;4.90;;;1.75;;
62338;SDS011;48368;53.406;6.214;2023-05-20T05:33:20;6.18;;;1.85;;
62338;SDS011;48368;53.406;6.214;2023-05-20T05:35:46;5.60;;;1.80;;
62338;SDS011;48368;53.406;6.214;2023-05-20T05:38:11;5.68;;;1.70;;
62338;SDS011;48368;53.406;6.214;2023-05-20T05:40:37;6.30;;;1.80;;
62338;SDS011;48368;53.406;6.214;2023-05-20T05:43:03;3.65;;;1.65;;
62338;SDS011;48368;53.406;6.214;2023-05-20T05:45:28;5.65;;;2.10;;
62338;SDS011;48368;53.406;6.214;2023-05-20T05:47:54;4.40;;;1.73;;
62338;SDS011;48368;53.406;6.214;2023-05-20T05:50:23;4.20;;;2.05;;
62338;SDS011;48368;53.406;6.214;2023-05-20T05:52:48;4.63;;;1.65;;
62338;SDS011;48368;53.406;6.214;2023-05-20T05:55:16;5.57;;;1.60;;
62338;SDS011;48368;53.406;6.214;2023-05-20T05:57:42;6.05;;;1.75;;
62338;SDS011;48368;53.406;6.214;2023-05-20T06:00:08;5.05;;;1.85;;
62338;SDS011;48368;53.406;6.214;2023-05-20T06:02:34;6.18;;;1.80;;
62338;SDS011;48368;53.406;6.214;2023-05-20T06:05:01;5.05;;;1.30;;
62338;SDS011;48368;53.406;6.214;2023-05-20T06:07:27;6.70;;;1.80;;
62338;SDS011;48368;53.406;6.214;2023-05-20T06:09:53;5.57;;;1.55;;
62338;SDS011;48368;53.406;6.214;2023-05-20T06:12:19;6.13;;;1.45;;
62338;SDS011;48368;53.406;6.214;2023-05-20T06:14:46;4.38;;;1.55;;
62338;SDS011;48368;53.406;6.214;2023-05-20T06:17:12;5.63;;;1.45;;
62338;SDS011;48368;53.406;6.214;2023-05-20T06:19:37;6.00;;;1.60;;
62338;SDS011;48368;53.406;6.214;2023-05-20T06:22:03;5.60;;;2.63;;
62338;SDS011;48368;53.406;6.214;2023-05-20T06:24:29;6.05;;;1.80;;
62338;SDS011;48368;53.406;6.214;2023-05-20T06:26:55;5.93;;;1.65;;
62338;SDS011;48368;53.406;6.214;2023-05-20T06:29:20;4.68;;;1.98;;
62338;SDS011;48368;53.406;6.214;2023-05-20T06:31:47;5.80;;;1.75;;
62338;SDS011;48368;53.406;6.214;2023-05-20T06:34:24;4.57;;;1.70;;
62338;SDS011;48368;53.406;6.214;2023-05-20T06:36:50;6.55;;;1.30;;
62338;SDS011;48368;53.406;6.214;2023-05-20T06:39:16;3.92;;;1.15;;
62338;SDS011;48368;53.406;6.214;2023-05-20T06:41:42;4.65;;;1.45;;
62338;SDS011;48368;53.406;6.214;2023-05-20T06:44:08;6.18;;;1.50;;
62338;SDS011;48368;53.406;6.214;2023-05-20T06:46:33;3.72;;;1.40;;
62338;SDS011;48368;53.406;6.214;2023-05-20T06:48:59;7.35;;;1.98;;
62338;SDS011;48368;53.406;6.214;2023-05-20T06:51:26;4.78;;;1.30;;
62338;SDS011;48368;53.406;6.214;2023-05-20T06:53:52;6.95;;;1.30;;
62338;SDS011;48368;53.406;6.214;2023-05-20T06:56:18;3.35;;;1.15;;
62338;SDS011;48368;53.406;6.214;2023-05-20T06:58:44;5.53;;;1.33;;
62338;SDS011;48368;53.406;6.214;2023-05-20T07:01:09;4.78;;;1.35;;
62338;SDS011;48368;53.406;6.214;2023-05-20T07:03:36;5.85;;;1.35;;
62338;SDS011;48368;53.406;6.214;2023-05-20T07:06:02;6.47;;;1.40;;
62338;SDS011;48368;53.406;6.214;2023-05-20T07:08:27;5.22;;;1.50;;
62338;SDS011;48368;53.406;6.214;2023-05-20T07:10:56;7.38;;;1.55;;
62338;SDS011;48368;53.406;6.214;2023-05-20T07:13:24;6.32;;;1.20;;
62338;SDS011;48368;53.406;6.214;2023-05-20T07:15:50;6.10;;;1.52;;
62338;SDS011;48368;53.406;6.214;2023-05-20T07:18:16;8.65;;;1.95;;
62338;SDS011;48368;53.406;6.214;2023-05-20T07:20:42;5.50;;;1.20;;
62338;SDS011;48368;53.406;6.214;2023-05-20T07:23:08;6.10;;;1.85;;
62338;SDS011;48368;53.406;6.214;2023-05-20T07:25:34;6.60;;;1.38;;
62338;SDS011;48368;53.406;6.214;2023-05-20T07:28:00;4.68;;;1.15;;
62338;SDS011;48368;53.406;6.214;2023-05-20T07:30:25;4.72;;;1.20;;
62338;SDS011;48368;53.406;6.214;2023-05-20T07:32:52;3.35;;;0.80;;
62338;SDS011;48368;53.406;6.214;2023-05-20T07:35:17;2.85;;;1.27;;
62338;SDS011;48368;53.406;6.214;2023-05-20T07:37:43;4.53;;;1.15;;
62338;SDS011;48368;53.406;6.214;2023-05-20T07:40:09;3.85;;;0.90;;
62338;SDS011;48368;53.406;6.214;2023-05-20T07:42:35;5.78;;;0.90;;
62338;SDS011;48368;53.406;6.214;2023-05-20T07:45:00;6.18;;;1.20;;
62338;SDS011;48368;53.406;6.214;2023-05-20T07:47:26;5.75;;;1.13;;
62338;SDS011;48368;53.406;6.214;2023-05-20T07:49:55;3.92;;;0.82;;
62338;SDS011;48368;53.406;6.214;2023-05-20T07:52:20;7.57;;;1.33;;
62338;SDS011;48368;53.406;6.214;2023-05-20T07:54:46;6.00;;;1.20;;
62338;SDS011;48368;53.406;6.214;2023-05-20T07:57:12;4.50;;;0.70;;
62338;SDS011;48368;53.406;6.214;2023-05-20T07:59:37;3.47;;;0.90;;
62338;SDS011;48368;53.406;6.214;2023-05-20T08:02:03;11.75;;;1.55;;
62338;SDS011;48368;53.406;6.214;2023-05-20T08:04:33;5.22;;;1.38;;
62338;SDS011;48368;53.406;6.214;2023-05-20T08:06:59;7.50;;;1.23;;
62338;SDS011;48368;53.406;6.214;2023-05-20T08:09:24;9.10;;;1.67;;
62338;SDS011;48368;53.406;6.214;2023-05-20T08:11:50;5.57;;;1.20;;
62338;SDS011;48368;53.406;6.214;2023-05-20T08:14:16;6.95;;;1.50;;
62338;SDS011;48368;53.406;6.214;2023-05-20T08:16:41;12.43;;;1.45;;
62338;SDS011;48368;53.406;6.214;2023-05-20T08:19:07;8.98;;;1.75;;
62338;SDS011;48368;53.406;6.214;2023-05-20T08:21:33;6.75;;;1.80;;
62338;SDS011;48368;53.406;6.214;2023-05-20T08:24:02;8.43;;;1.75;;
62338;SDS011;48368;53.406;6.214;2023-05-20T08:26:28;8.43;;;2.00;;
62338;SDS011;48368;53.406;6.214;2023-05-20T08:28:54;7.18;;;1.83;;
62338;SDS011;48368;53.406;6.214;2023-05-20T08:31:20;8.68;;;1.90;;
62338;SDS011;48368;53.406;6.214;2023-05-20T08:33:45;9.63;;;2.22;;
62338;SDS011;48368;53.406;6.214;2023-05-20T08:36:12;7.18;;;1.92;;
62338;SDS011;48368;53.406;6.214;2023-05-20T08:38:38;8.82;;;1.83;;
62338;SDS011;48368;53.406;6.214;2023-05-20T08:41:03;11.65;;;1.63;;
62338;SDS011;48368;53.406;6.214;2023-05-20T08:43:29;6.20;;;1.23;;
62338;SDS011;48368;53.406;6.214;2023-05-20T08:45:56;9.52;;;1.75;;
62338;SDS011;48368;53.406;6.214;2023-05-20T08:48:23;9.80;;;1.55;;
62338;SDS011;48368;53.406;6.214;2023-05-20T08:50:56;10.13;;;1.92;;
62338;SDS011;48368;53.406;6.214;2023-05-20T08:53:22;7.88;;;1.80;;
62338;SDS011;48368;53.406;6.214;2023-05-20T08:55:55;6.35;;;1.63;;
62338;SDS011;48368;53.406;6.214;2023-05-20T08:58:24;8.38;;;1.75;;
62338;SDS011;48368;53.406;6.214;2023-05-20T09:00:50;6.80;;;1.60;;
62338;SDS011;48368;53.406;6.214;2023-05-20T09:03:20;7.90;;;1.80;;
62338;SDS011;48368;53.406;6.214;2023-05-20T09:05:46;9.02;;;1.70;;
62338;SDS011;48368;53.406;6.214;2023-05-20T09:08:12;8.73;;;2.00;;
62338;SDS011;48368;53.406;6.214;2023-05-20T09:10:39;10.13;;;2.70;;
62338;SDS011;48368;53.406;6.214;2023-05-20T09:13:11;15.10;;;2.30;;
62338;SDS011;48368;53.406;6.214;2023-05-20T09:15:37;9.43;;;1.60;;
62338;SDS011;48368;53.406;6.214;2023-05-20T09:18:04;5.90;;;1.80;;
62338;SDS011;48368;53.406;6.214;2023-05-20T09:20:32;5.72;;;1.67;;
62338;SDS011;48368;53.406;6.214;2023-05-20T09:23:03;10.02;;;1.80;;
62338;SDS011;48368;53.406;6.214;2023-05-20T09:25:30;9.48;;;2.17;;
62338;SDS011;48368;53.406;6.214;2023-05-20T09:27:56;10.70;;;1.90;;
62338;SDS011;48368;53.406;6.214;2023-05-20T09:30:22;10.23;;;3.00;;
62338;SDS011;48368;53.406;6.214;2023-05-20T09:32:55;7.00;;;1.77;;
62338;SDS011;48368;53.406;6.214;2023-05-20T09:35:23;7.88;;;1.77;;
62338;SDS011;48368;53.406;6.214;2023-05-20T09:37:56;8.30;;;2.00;;
62338;SDS011;48368;53.406;6.214;2023-05-20T09:40:28;12.35;;;2.13;;
62338;SDS011;48368;53.406;6.214;2023-05-20T09:43:04;7.50;;;1.92;;
62338;SDS011;48368;53.406;6.214;2023-05-20T09:45:35;6.30;;;1.65;;
62338;SDS011;48368;53.406;6.214;2023-05-20T09:48:02;6.22;;;1.63;;
62338;SDS011;48368;53.406;6.214;2023-05-20T09:50:29;6.95;;;1.63;;
62338;SDS011;48368;53.406;6.214;2023-05-20T09:52:56;6.75;;;2.00;;
62338;SDS011;48368;53.406;6.214;2023-05-20T09:55:26;7.18;;;2.00;;
62338;SDS011;48368;53.406;6.214;2023-05-20T09:57:55;6.28;;;1.65;;
62338;SDS011;48368;53.406;6.214;2023-05-20T10:00:22;10.38;;;1.95;;
62338;SDS011;48368;53.406;6.214;2023-05-20T10:02:51;7.93;;;1.83;;
62338;SDS011;48368;53.406;6.214;2023-05-20T10:05:26;7.90;;;1.92;;
62338;SDS011;48368;53.406;6.214;2023-05-20T10:11:16;10.77;;;2.10;;
62338;SDS011;48368;53.406;6.214;2023-05-20T10:16:35;8.13;;;1.97;;
62338;SDS011;48368;53.406;6.214;2023-05-20T10:21:56;7.20;;;1.90;;
62338;SDS011;48368;53.406;6.214;2023-05-20T10:24:28;9.43;;;2.20;;
62338;SDS011;48368;53.406;6.214;2023-05-20T10:26:56;12.60;;;2.13;;
62338;SDS011;48368;53.406;6.214;2023-05-20T10:29:22;11.27;;;2.08;;
62338;SDS011;48368;53.406;6.214;2023-05-20T10:31:49;7.00;;;2.40;;
62338;SDS011;48368;53.406;6.214;2023-05-20T10:34:16;12.90;;;2.38;;
62338;SDS011;48368;53.406;6.214;2023-05-20T10:36:56;12.80;;;2.13;;
62338;SDS011;48368;53.406;6.214;2023-05-20T10:39:30;12.45;;;2.00;;
62338;SDS011;48368;53.406;6.214;2023-05-20T10:42:09;9.95;;;2.17;;
62338;SDS011;48368;53.406;6.214;2023-05-20T10:44:41;10.57;;;2.83;;
62338;SDS011;48368;53.406;6.214;2023-05-20T10:47:12;8.93;;;2.20;;
62338;SDS011;48368;53.406;6.214;2023-05-20T10:49:39;9.73;;;2.53;;
62338;SDS011;48368;53.406;6.214;2023-05-20T10:52:09;16.75;;;2.50;;
62338;SDS011;48368;53.406;6.214;2023-05-20T10:54:35;11.00;;;2.25;;
62338;SDS011;48368;53.406;6.214;2023-05-20T10:57:10;7.30;;;1.83;;
62338;SDS011;48368;53.406;6.214;2023-05-20T10:59:36;12.90;;;2.55;;
62338;SDS011;48368;53.406;6.214;2023-05-20T11:02:02;10.63;;;2.72;;
62338;SDS011;48368;53.406;6.214;2023-05-20T11:04:29;11.65;;;2.22;;
62338;SDS011;48368;53.406;6.214;2023-05-20T11:06:56;9.40;;;2.22;;
62338;SDS011;48368;53.406;6.214;2023-05-20T11:09:23;9.35;;;2.33;;
62338;SDS011;48368;53.406;6.214;2023-05-20T11:11:52;7.03;;;2.17;;
62338;SDS011;48368;53.406;6.214;2023-05-20T11:14:20;8.77;;;2.40;;
62338;SDS011;48368;53.406;6.214;2023-05-20T11:16:52;8.52;;;2.30;;
62338;SDS011;48368;53.406;6.214;2023-05-20T11:19:23;9.15;;;2.53;;
62338;SDS011;48368;53.406;6.214;2023-05-20T11:21:49;13.57;;;3.13;;
62338;SDS011;48368;53.406;6.214;2023-05-20T11:24:25;6.93;;;2.20;;
62338;SDS011;48368;53.406;6.214;2023-05-20T11:26:51;9.05;;;3.10;;
62338;SDS011;48368;53.406;6.214;2023-05-20T11:29:21;9.38;;;2.72;;
62338;SDS011;48368;53.406;6.214;2023-05-20T11:31:50;10.35;;;2.90;;
62338;SDS011;48368;53.406;6.214;2023-05-20T11:34:18;9.05;;;2.80;;
62338;SDS011;48368;53.406;6.214;2023-05-20T11:36:45;10.70;;;3.30;;
62338;SDS011;48368;53.406;6.214;2023-05-20T11:39:11;11.32;;;2.97;;
62338;SDS011;48368;53.406;6.214;2023-05-20T11:41:40;10.57;;;3.05;;
62338;SDS011;48368;53.406;6.214;2023-05-20T11:44:09;12.07;;;2.70;;
62338;SDS011;48368;53.406;6.214;2023-05-20T11:46:44;8.10;;;2.60;;
62338;SDS011;48368;53.406;6.214;2023-05-20T11:49:11;8.20;;;2.65;;
62338;SDS011;48368;53.406;6.214;2023-05-20T11:51:41;10.13;;;2.80;;
62338;SDS011;48368;53.406;6.214;2023-05-20T11:54:07;9.73;;;2.75;;
62338;SDS011;48368;53.406;6.214;2023-05-20T11:56:37;7.80;;;3.17;;
62338;SDS011;48368;53.406;6.214;2023-05-20T11:59:05;13.68;;;2.95;;
62338;SDS011;48368;53.406;6.214;2023-05-20T12:01:37;14.38;;;2.95;;
62338;SDS011;48368;53.406;6.214;2023-05-20T12:04:23;9.57;;;3.13;;
62338;SDS011;48368;53.406;6.214;2023-05-20T12:06:49;9.95;;;2.85;;
62338;SDS011;48368;53.406;6.214;2023-05-20T12:09:17;7.03;;;2.80;;
62338;SDS011;48368;53.406;6.214;2023-05-20T12:11:44;10.63;;;3.60;;
62338;SDS011;48368;53.406;6.214;2023-05-20T12:14:12;8.23;;;3.28;;
62338;SDS011;48368;53.406;6.214;2023-05-20T12:16:38;7.22;;;2.88;;
62338;SDS011;48368;53.406;6.214;2023-05-20T12:19:04;7.78;;;3.10;;
62338;SDS011;48368;53.406;6.214;2023-05-20T12:21:30;8.63;;;3.28;;
62338;SDS011;48368;53.406;6.214;2023-05-20T12:24:04;14.63;;;4.25;;
62338;SDS011;48368;53.406;6.214;2023-05-20T12:26:32;11.23;;;3.70;;
62338;SDS011;48368;53.406;6.214;2023-05-20T12:28:59;12.57;;;3.38;;
62338;SDS011;48368;53.406;6.214;2023-05-20T12:31:25;10.25;;;3.58;;
62338;SDS011;48368;53.406;6.214;2023-05-20T12:33:50;13.15;;;3.42;;
62338;SDS011;48368;53.406;6.214;2023-05-20T12:36:16;14.13;;;3.97;;
62338;SDS011;48368;53.406;6.214;2023-05-20T12:38:43;10.55;;;3.47;;
62338;SDS011;48368;53.406;6.214;2023-05-20T12:41:09;13.02;;;3.90;;
62338;SDS011;48368;53.406;6.214;2023-05-20T12:43:35;8.80;;;3.80;;
62338;SDS011;48368;53.406;6.214;2023-05-20T12:46:01;12.80;;;3.83;;
62338;SDS011;48368;53.406;6.214;2023-05-20T12:48:27;12.35;;;4.00;;
62338;SDS011;48368;53.406;6.214;2023-05-20T12:50:53;14.73;;;4.43;;
62338;SDS011;48368;53.406;6.214;2023-05-20T12:53:18;11.93;;;4.28;;
62338;SDS011;48368;53.406;6.214;2023-05-20T12:55:44;14.93;;;4.13;;
62338;SDS011;48368;53.406;6.214;2023-05-20T12:58:10;15.98;;;4.60;;
62338;SDS011;48368;53.406;6.214;2023-05-20T13:00:36;10.80;;;4.00;;
62338;SDS011;48368;53.406;6.214;2023-05-20T13:03:01;13.55;;;5.07;;
62338;SDS011;48368;53.406;6.214;2023-05-20T13:05:27;13.48;;;4.85;;
62338;SDS011;48368;53.406;6.214;2023-05-20T13:07:55;11.88;;;4.28;;
62338;SDS011;48368;53.406;6.214;2023-05-20T13:10:21;10.73;;;3.17;;
62338;SDS011;48368;53.406;6.214;2023-05-20T13:12:47;18.95;;;4.25;;
62338;SDS011;48368;53.406;6.214;2023-05-20T13:15:13;12.85;;;4.30;;
62338;SDS011;48368;53.406;6.214;2023-05-20T13:17:41;16.45;;;4.35;;
62338;SDS011;48368;53.406;6.214;2023-05-20T13:20:07;9.27;;;4.38;;
62338;SDS011;48368;53.406;6.214;2023-05-20T13:22:35;13.82;;;4.10;;
62338;SDS011;48368;53.406;6.214;2023-05-20T13:25:00;13.43;;;4.90;;
62338;SDS011;48368;53.406;6.214;2023-05-20T13:27:26;14.60;;;4.28;;
62338;SDS011;48368;53.406;6.214;2023-05-20T13:29:54;13.02;;;4.38;;
62338;SDS011;48368;53.406;6.214;2023-05-20T13:32:20;16.17;;;4.95;;
62338;SDS011;48368;53.406;6.214;2023-05-20T13:34:46;16.92;;;4.50;;
62338;SDS011;48368;53.406;6.214;2023-05-20T13:37:11;15.25;;;5.07;;
62338;SDS011;48368;53.406;6.214;2023-05-20T13:39:37;14.20;;;4.35;;
62338;SDS011;48368;53.406;6.214;2023-05-20T13:42:03;17.73;;;5.35;;
62338;SDS011;48368;53.406;6.214;2023-05-20T13:44:28;11.65;;;4.63;;
62338;SDS011;48368;53.406;6.214;2023-05-20T13:46:54;21.23;;;6.00;;
62338;SDS011;48368;53.406;6.214;2023-05-20T13:49:20;8.75;;;4.40;;
62338;SDS011;48368;53.406;6.214;2023-05-20T13:51:46;14.75;;;4.13;;
62338;SDS011;48368;53.406;6.214;2023-05-20T13:54:11;14.05;;;3.70;;
62338;SDS011;48368;53.406;6.214;2023-05-20T13:56:37;16.98;;;4.70;;
62338;SDS011;48368;53.406;6.214;2023-05-20T13:59:03;15.88;;;4.25;;
62338;SDS011;48368;53.406;6.214;2023-05-20T14:01:29;18.02;;;3.70;;
62338;SDS011;48368;53.406;6.214;2023-05-20T14:04:04;11.63;;;4.22;;
62338;SDS011;48368;53.406;6.214;2023-05-20T14:06:31;16.92;;;4.00;;
62338;SDS011;48368;53.406;6.214;2023-05-20T14:08:57;19.45;;;4.05;;
62338;SDS011;48368;53.406;6.214;2023-05-20T14:11:22;13.75;;;4.50;;
62338;SDS011;48368;53.406;6.214;2023-05-20T14:13:57;15.98;;;3.92;;
62338;SDS011;48368;53.406;6.214;2023-05-20T14:16:23;13.55;;;4.43;;
62338;SDS011;48368;53.406;6.214;2023-05-20T14:18:48;13.60;;;4.57;;
62338;SDS011;48368;53.406;6.214;2023-05-20T14:21:14;12.20;;;4.07;;
62338;SDS011;48368;53.406;6.214;2023-05-20T14:23:40;11.45;;;4.30;;
62338;SDS011;48368;53.406;6.214;2023-05-20T14:26:08;18.98;;;4.53;;
62338;SDS011;48368;53.406;6.214;2023-05-20T14:28:34;14.73;;;4.03;;
62338;SDS011;48368;53.406;6.214;2023-05-20T14:31:00;14.48;;;4.68;;
62338;SDS011;48368;53.406;6.214;2023-05-20T14:33:25;16.88;;;4.63;;
62338;SDS011;48368;53.406;6.214;2023-05-20T14:35:51;14.18;;;4.30;;
62338;SDS011;48368;53.406;6.214;2023-05-20T14:38:17;14.32;;;4.35;;
62338;SDS011;48368;53.406;6.214;2023-05-20T14:40:44;19.15;;;3.90;;
62338;SDS011;48368;53.406;6.214;2023-05-20T14:43:10;14.60;;;3.90;;
62338;SDS011;48368;53.406;6.214;2023-05-20T14:45:35;16.00;;;4.22;;
62338;SDS011;48368;53.406;6.214;2023-05-20T14:48:01;22.95;;;4.35;;
62338;SDS011;48368;53.406;6.214;2023-05-20T14:50:27;14.02;;;3.92;;